Linea — 2JFX2 — position and weather

sailwx.info

Track history (hours):
 
Tides and Currents Weather Stations Pressure Air Temp Water Temp Dewpoint Dewpoint Depression Visibility Wind Speed Wind Dir Waves Ship Positions

Linea

Last reported at 2017-Sep-19 13:28 UTC. Time now 2017-Sep-19 13:44 UTC.
Position N 37°25' E 025°14'.

Length 14 m.

Type: Sailing vessel. MMSI: 235115567.

Date/timePositionNaut miles runAvg speedWind from/ knotsBaromVisibWave heightAir tempDewpointWater temp
2017-Sep-19 13:28N 37°25' E 025°14'0 0.0
2017-Sep-19 12:59N 37°25' E 025°14'4 3.6
2017-Sep-19 11:45N 37°27' E 025°09'2 0.0
2017-Sep-17 10:00N 37°25' E 025°07'2 3.0
2017-Sep-17 09:25N 37°25' E 025°09'1 3.0
2017-Sep-17 09:01N 37°24' E 025°11'2 3.1
2017-Sep-17 08:29N 37°24' E 025°13'1 0.0
2017-Sep-15 10:53N 37°23' E 025°13'1 3.7
2017-Sep-15 10:30N 37°22' E 025°12'1 1.9
2017-Sep-15 10:00N 37°21' E 025°13'2 3.6
2017-Sep-15 09:29N 37°22' E 025°15'1 2.7
2017-Sep-15 09:00N 37°22' E 025°17'2 3.1
2017-Sep-15 08:30N 37°23' E 025°18'2 3.6
2017-Sep-15 07:56N 37°25' E 025°19'0 0.0
2017-Sep-13 15:06N 37°25' E 025°19'0 0.1
2017-Sep-13 15:00N 37°25' E 025°19'0 0.2
2017-Sep-13 14:29N 37°25' E 025°19'4 0.2
2017-Sep-12 15:47N 37°25' E 025°14'0 0.5
2017-Sep-12 15:30N 37°24' E 025°14'15 3.7
2017-Sep-12 11:17N 37°22' E 024°55'2 4.0
2017-Sep-12 10:49N 37°22' E 024°53'1 0.1
2017-Sep-11 13:48N 37°23' E 024°52'1 2.8
2017-Sep-11 13:30N 37°22' E 024°52'2 3.7
2017-Sep-11 13:00N 37°21' E 024°54'2 4.6
2017-Sep-11 12:30N 37°19' E 024°56'2 4.4
2017-Sep-11 12:00N 37°18' E 024°59'2 3.7
2017-Sep-11 11:30N 37°17' E 025°00'12 5.2
2017-Sep-11 09:07N 37°10' E 025°13'1 4.8
2017-Sep-11 08:59N 37°10' E 025°14'2 0.3
2017-Sep-11 02:06N 37°08' E 025°13'0 0.0
2017-Sep-11 01:00N 37°08' E 025°13'0 0.0
2017-Sep-10 11:27N 37°08' E 025°13'2 4.0
2017-Sep-10 11:00N 37°09' E 025°15'2 3.8
2017-Sep-10 10:30N 37°10' E 025°17'2 4.9
2017-Sep-10 10:00N 37°08' E 025°20'3 5.0
2017-Sep-10 09:30N 37°07' E 025°22'0 0.1
2017-Sep-10 05:35N 37°06' E 025°22'0 0.0
2017-Sep-10 05:26N 37°06' E 025°22'0 0.0
2017-Sep-10 04:56N 37°06' E 025°22'0 0.0
2017-Sep-10 04:29N 37°06' E 025°22'0 0.0
2017-Sep-10 03:59N 37°06' E 025°22'0 0.0
2017-Sep-10 03:29N 37°06' E 025°22'0 0.0
2017-Sep-10 02:59N 37°06' E 025°22'0 0.0
2017-Sep-10 02:29N 37°06' E 025°22'0 0.0
2017-Sep-10 01:56N 37°06' E 025°22'0 0.0
2017-Sep-10 01:29N 37°06' E 025°22'0 0.0
2017-Sep-10 00:56N 37°06' E 025°22'0 0.0
2017-Sep-10 00:29N 37°06' E 025°22'0 0.0
2017-Sep-09 23:59N 37°06' E 025°22'0 0.0
2017-Sep-09 23:29N 37°06' E 025°22'0 0.0
2017-Sep-09 22:59N 37°06' E 025°22'0 0.0
2017-Sep-09 22:29N 37°06' E 025°22'0 0.0
2017-Sep-09 21:59N 37°06' E 025°22'0 0.0
2017-Sep-09 21:26N 37°06' E 025°22'0 0.0
2017-Sep-09 20:59N 37°06' E 025°22'0 0.0
2017-Sep-09 20:29N 37°06' E 025°22'0 0.0
2017-Sep-09 19:59N 37°06' E 025°22'0 0.0
2017-Sep-09 19:29N 37°06' E 025°22'0 0.0
2017-Sep-09 18:59N 37°06' E 025°22'0 0.0
2017-Sep-09 18:26N 37°06' E 025°22'0 0.0
2017-Sep-09 17:59N 37°06' E 025°22'0 0.0
2017-Sep-09 17:26N 37°06' E 025°22'0 0.0
2017-Sep-09 16:59N 37°06' E 025°22'0 0.0
2017-Sep-09 16:29N 37°06' E 025°22'0 0.0
2017-Sep-09 15:59N 37°06' E 025°22'0 0.0
2017-Sep-09 15:29N 37°06' E 025°22'0 0.0
2017-Sep-09 14:59N 37°06' E 025°22'0 0.0
2017-Sep-09 14:29N 37°06' E 025°22'1 2.4
2017-Sep-09 14:00N 37°06' E 025°21'2 4.0
2017-Sep-09 13:30N 37°04' E 025°21'  
Track history (hours):
 
Tides and Currents Weather Stations Pressure Air Temp Water Temp Dewpoint Dewpoint Depression Visibility Wind Speed Wind Dir Waves Ship Positions

Linea

Last reported at 2017-Sep-19 13:28 UTC. Time now 2017-Sep-19 13:44 UTC.
Position N 37°25' E 025°14'.

Length 14 m.

Type: Sailing vessel. MMSI: 235115567.

Date/timePositionNaut miles runAvg speedWind from/ knotsBaromVisibWave heightAir tempDewpointWater temp
2017-Sep-19 13:28N 37°25' E 025°14'0 0.0
2017-Sep-19 12:59N 37°25' E 025°14'4 3.6
2017-Sep-19 11:45N 37°27' E 025°09'2 0.0
2017-Sep-17 10:00N 37°25' E 025°07'2 3.0
2017-Sep-17 09:25N 37°25' E 025°09'1 3.0
2017-Sep-17 09:01N 37°24' E 025°11'2 3.1
2017-Sep-17 08:29N 37°24' E 025°13'1 0.0
2017-Sep-15 10:53N 37°23' E 025°13'1 3.7
2017-Sep-15 10:30N 37°22' E 025°12'1 1.9
2017-Sep-15 10:00N 37°21' E 025°13'2 3.6
2017-Sep-15 09:29N 37°22' E 025°15'1 2.7
2017-Sep-15 09:00N 37°22' E 025°17'2 3.1
2017-Sep-15 08:30N 37°23' E 025°18'2 3.6
2017-Sep-15 07:56N 37°25' E 025°19'0 0.0
2017-Sep-13 15:06N 37°25' E 025°19'0 0.1
2017-Sep-13 15:00N 37°25' E 025°19'0 0.2
2017-Sep-13 14:29N 37°25' E 025°19'4 0.2
2017-Sep-12 15:47N 37°25' E 025°14'0 0.5
2017-Sep-12 15:30N 37°24' E 025°14'15 3.7
2017-Sep-12 11:17N 37°22' E 024°55'2 4.0
2017-Sep-12 10:49N 37°22' E 024°53'1 0.1
2017-Sep-11 13:48N 37°23' E 024°52'1 2.8
2017-Sep-11 13:30N 37°22' E 024°52'2 3.7
2017-Sep-11 13:00N 37°21' E 024°54'2 4.6
2017-Sep-11 12:30N 37°19' E 024°56'2 4.4
2017-Sep-11 12:00N 37°18' E 024°59'2 3.7
2017-Sep-11 11:30N 37°17' E 025°00'12 5.2
2017-Sep-11 09:07N 37°10' E 025°13'1 4.8
2017-Sep-11 08:59N 37°10' E 025°14'2 0.3
2017-Sep-11 02:06N 37°08' E 025°13'0 0.0
2017-Sep-11 01:00N 37°08' E 025°13'0 0.0
2017-Sep-10 11:27N 37°08' E 025°13'2 4.0
2017-Sep-10 11:00N 37°09' E 025°15'2 3.8
2017-Sep-10 10:30N 37°10' E 025°17'2 4.9
2017-Sep-10 10:00N 37°08' E 025°20'3 5.0
2017-Sep-10 09:30N 37°07' E 025°22'0 0.1
2017-Sep-10 05:35N 37°06' E 025°22'0 0.0
2017-Sep-10 05:26N 37°06' E 025°22'0 0.0
2017-Sep-10 04:56N 37°06' E 025°22'0 0.0
2017-Sep-10 04:29N 37°06' E 025°22'0 0.0
2017-Sep-10 03:59N 37°06' E 025°22'0 0.0
2017-Sep-10 03:29N 37°06' E 025°22'0 0.0
2017-Sep-10 02:59N 37°06' E 025°22'0 0.0
2017-Sep-10 02:29N 37°06' E 025°22'0 0.0
2017-Sep-10 01:56N 37°06' E 025°22'0 0.0
2017-Sep-10 01:29N 37°06' E 025°22'0 0.0
2017-Sep-10 00:56N 37°06' E 025°22'0 0.0
2017-Sep-10 00:29N 37°06' E 025°22'0 0.0
2017-Sep-09 23:59N 37°06' E 025°22'0 0.0
2017-Sep-09 23:29N 37°06' E 025°22'0 0.0
2017-Sep-09 22:59N 37°06' E 025°22'0 0.0
2017-Sep-09 22:29N 37°06' E 025°22'0 0.0
2017-Sep-09 21:59N 37°06' E 025°22'0 0.0
2017-Sep-09 21:26N 37°06' E 025°22'0 0.0
2017-Sep-09 20:59N 37°06' E 025°22'0 0.0
2017-Sep-09 20:29N 37°06' E 025°22'0 0.0
2017-Sep-09 19:59N 37°06' E 025°22'0 0.0
2017-Sep-09 19:29N 37°06' E 025°22'0 0.0
2017-Sep-09 18:59N 37°06' E 025°22'0 0.0
2017-Sep-09 18:26N 37°06' E 025°22'0 0.0
2017-Sep-09 17:59N 37°06' E 025°22'0 0.0
2017-Sep-09 17:26N 37°06' E 025°22'0 0.0
2017-Sep-09 16:59N 37°06' E 025°22'0 0.0
2017-Sep-09 16:29N 37°06' E 025°22'0 0.0
2017-Sep-09 15:59N 37°06' E 025°22'0 0.0
2017-Sep-09 15:29N 37°06' E 025°22'0 0.0
2017-Sep-09 14:59N 37°06' E 025°22'0 0.0
2017-Sep-09 14:29N 37°06' E 025°22'1 2.4
2017-Sep-09 14:00N 37°06' E 025°21'2 4.0
2017-Sep-09 13:30N 37°04' E 025°21'  

Dump ship's entire track history